Latest Weather Observations for Forrest

IDW60801

Issued at 4:02 am WST Wednesday 28 February 2024 (issued every 10 minutes, with the page automatically refreshed every 10 minutes)

About weather observations | Map of weather stations | Latest weather observations for WA | Other Formats
Station Details ID: 011052 Name: FORREST Lat: -30.85 Lon: 128.11 Height: 159.0 m
Data from the previous 72 hours. | See also: Recent months at Forrest
Date/Time
WST
Temp
°C
App
Temp
°C
Dew
Point
°C
Rel
Hum
%
Delta-T
°C
Wind Press
QNH
hPa
Press
MSL
hPa
Rain since
9am
mm
Dir  Spd
km/h
Gust
km/h
Spd
kts
Gust
kts
28/04:00am 18.5 16.9 12.7 69 3.3 S 13 15 7 8 1013.0 1012.2 0.0
28/03:30am 18.4 16.7 12.6 69 3.3 SSW 13 17 7 9 1012.8 1012.0 0.0
28/03:00am 18.3 17.0 12.5 69 3.3 SW 11 15 6 8 1012.9 1012.1 0.0
28/02:30am 18.1 14.3 12.5 70 3.1 SSW 24 30 13 16 1012.1 1011.3 0.0
28/02:00am 18.2 13.3 12.4 69 3.2 SSW 30 39 16 21 1011.6 1010.8 0.0
28/01:30am 18.4 13.0 12.2 67 3.5 SSW 32 41 17 22 1011.8 1011.0 0.0
28/01:00am 18.7 13.6 12.0 65 3.7 SSW 30 41 16 22 1011.8 1011.0 0.0
28/12:30am 18.9 14.0 12.4 66 3.7 SSW 30 35 16 19 1012.7 1011.9 0.0
28/12:00am 19.1 15.0 12.6 66 3.7 SSW 26 32 14 17 1013.1 1012.3 0.0
 
Date/Time
WST
Temp
°C
App
Temp
°C
Dew
Point
°C
Rel
Hum
%
Delta-T
°C
Wind Press
QNH
hPa
Press
MSL
hPa
Rain since
9am
mm
Dir  Spd
km/h
Gust
km/h
Spd
kts
Gust
kts
27/11:30pm 19.2 14.0 12.7 66 3.7 SSW 32 39 17 21 1013.4 1012.6 0.0
27/11:00pm 19.4 14.5 12.7 65 3.8 SSW 30 35 16 19 1013.4 1012.6 0.0
27/10:30pm 19.6 16.6 12.4 63 4.1 S 20 30 11 16 1013.4 1012.6 0.0
27/10:00pm 19.8 13.7 11.8 60 4.5 SSW 35 48 19 26 1012.7 1011.9 0.0
27/09:30pm 20.5 14.1 10.6 53 5.4 SSW 35 44 19 24 1012.1 1011.3 0.0
27/09:09pm 20.7 12.1 10.2 51 5.7 SSW 46 65 25 35 1012.0 1011.2 0.0
27/09:00pm 21.0 11.9 9.9 49 6.0 SW 48 65 26 35 1011.8 1011.0 0.0
27/08:56pm 21.1 12.9 9.7 48 6.2 SW 43 61 23 33 1011.7 1010.9 0.0
27/08:30pm 21.6 13.8 9.8 47 6.4 SSW 41 52 22 28 1011.4 1010.6 0.0
27/08:15pm 21.9 14.0 9.4 45 6.8 SSW 41 59 22 32 1011.2 1010.5 0.0
27/08:00pm 22.1 13.6 9.3 44 6.9 SSW 44 61 24 33 1010.8 1010.0 0.0
27/07:30pm 22.3 14.7 9.1 43 7.1 SSW 39 54 21 29 1010.5 1009.7 0.0
27/07:17pm 22.4 14.6 9.6 44 7.0 SSW 41 59 22 32 1010.4 1009.6 0.0
27/07:00pm 22.6 13.5 9.7 44 7.0 SSW 48 63 26 34 1010.0 1009.2 0.0
27/06:30pm 23.1 13.4 9.1 41 7.6 SSW 50 65 27 35 1009.4 1008.6 0.0
27/06:22pm 23.3 13.6 9.0 40 7.7 SSW 50 69 27 37 1009.4 1008.6 0.0
27/06:00pm 23.7 13.7 9.3 40 7.9 SSW 52 65 28 35 1009.1 1008.3 0.0
27/05:49pm 24.3 14.2 9.1 38 8.3 SSW 52 70 28 38 1008.9 1008.1 0.0
27/05:30pm 24.7 14.2 10.2 40 8.1 SSW 56 69 30 37 1009.0 1008.2 0.0
27/05:14pm 25.6 16.2 11.4 41 8.1 SSW 52 70 28 38 1008.8 1008.0 0.0
27/05:00pm 26.4 16.9 12.5 42 8.1 SSW 54 69 29 37 1008.6 1007.8 0.0
27/04:30pm 27.4 17.7 13.7 43 8.2 SSW 57 72 31 39 1007.8 1007.0 0.0
27/04:03pm 28.6 19.2 15.5 45 8.1 SSW 59 78 32 42 1007.1 1006.3 0.0
27/04:00pm 27.9 18.3 14.9 45 7.9 SSW 59 74 32 40 1006.9 1006.1 0.0
27/03:32pm 29.6 20.3 15.7 43 8.6 SSW 59 78 32 42 1006.3 1005.5 0.0
27/03:30pm 29.4 19.6 15.5 43 8.6 SSW 61 78 33 42 1006.2 1005.4 0.0
27/03:23pm 29.7 19.5 15.4 42 8.8 SSW 63 78 34 42 1006.0 1005.2 0.0
27/03:00pm 33.3 23.9 16.6 36 10.7 SSW 61 83 33 45 1004.6 1003.8 0.0
27/02:54pm 34.1 24.9 16.0 34 11.5 SSW 59 78 32 42 1004.3 1003.5 0.0
27/02:44pm 37.3 28.8 16.3 29 13.5 SW 56 78 30 42 1003.8 1003.0 0.0
27/02:41pm 38.3 30.4 14.8 25 14.8 WSW 50 70 27 38 1003.7 1002.9 0.0
27/02:30pm 41.0 33.0 11.1 17 18.1 W 44 63 24 34 1003.4 1002.6 0.0
27/02:04pm 41.5 33.5 10.6 16 18.6 WSW 43 61 23 33 1003.2 1002.4 0.0
27/02:00pm 41.8 33.7 10.8 16 18.8 W 44 61 24 33 1003.2 1002.4 0.0
27/01:30pm 41.2 33.6 10.4 16 18.5 W 41 61 22 33 1003.3 1002.5 0.0
27/01:23pm 41.8 33.7 9.9 15 19.1 W 43 61 23 33 1003.3 1002.5 0.0
27/01:00pm 41.9 34.7 11.8 17 18.5 W 41 56 22 30 1003.4 1002.6 0.0
27/12:30pm 41.5 35.1 13.2 19 17.7 W 39 52 21 28 1003.5 1002.7 0.0
27/12:05pm 40.8 34.5 13.4 20 17.1 W 39 57 21 31 1003.7 1002.9 0.0
27/12:00pm 41.0 34.5 12.8 19 17.5 W 39 50 21 27 1003.6 1002.8 0.0
27/11:30am 39.8 33.5 13.4 21 16.4 W 39 52 21 28 1003.9 1003.1 0.0
27/11:00am 40.2 32.8 12.9 20 17.0 W 44 61 24 33 1004.0 1003.2 0.0
27/10:30am 39.8 31.9 12.6 20 16.7 W 46 59 25 32 1004.2 1003.4 0.0
27/10:00am 39.3 31.1 9.8 17 17.5 W 43 54 23 29 1004.3 1003.5 0.0
27/09:30am 38.2 30.3 8.0 16 17.3 W 39 52 21 28 1004.4 1003.6 0.0
27/09:00am 36.4 29.7 8.3 18 16.1 WNW 33 43 18 23 1004.5 1003.7 0.0
27/08:30am 34.6 28.3 7.6 19 15.1 NW 30 37 16 20 1004.5 1003.7 0.0
27/08:00am 32.4 27.4 8.0 22 13.6 NNW 24 28 13 15 1004.5 1003.7 0.0
27/07:30am 29.1 25.2 8.7 28 11.3 N 19 24 10 13 1004.7 1003.9 0.0
27/07:00am 25.6 22.6 9.4 36 9.0 N 15 19 8 10 1005.0 1004.1 0.0
27/06:30am 23.7 21.7 10.0 42 7.6 N 11 13 6 7 1005.1 1004.2 0.0
27/06:00am 22.1 19.4 10.3 47 6.5 NE 15 17 8 9 1005.0 1004.1 0.0
27/05:30am 21.5 18.8 10.3 49 6.1 ENE 15 19 8 10 1004.5 1003.7 0.0
27/05:00am 21.2 18.1 10.4 50 5.9 ENE 17 20 9 11 1004.6 1003.8 0.0
27/04:30am 21.4 18.1 10.9 51 5.8 ENE 19 24 10 13 1004.6 1003.8 0.0
27/04:00am 21.7 17.4 10.8 50 6.1 ENE 24 30 13 16 1005.0 1004.1 0.0
27/03:30am 22.0 18.5 10.8 49 6.2 ENE 20 26 11 14 1005.3 1004.4 0.0
27/03:00am 22.6 17.9 10.7 47 6.6 E 26 33 14 18 1005.4 1004.6 0.0
27/02:30am 23.1 17.6 10.5 45 7.0 E 30 35 16 19 1005.6 1004.8 0.0
27/02:00am 22.7 19.4 10.8 47 6.6 SE 19 26 10 14 1006.8 1006.0 0.0
27/01:30am 22.9 18.9 10.3 45 7.0 ESE 22 30 12 16 1006.6 1005.8 0.0
27/01:00am 22.5 19.8 10.3 46 6.7 SE 15 20 8 11 1007.2 1006.4 0.0
27/12:30am 22.6 19.1 10.1 45 6.9 ESE 19 24 10 13 1007.2 1006.4 0.0
27/12:00am 22.6 18.8 9.7 44 7.1 E 20 26 11 14 1007.5 1006.7 0.0
 
Date/Time
WST
Temp
°C
App
Temp
°C
Dew
Point
°C
Rel
Hum
%
Delta-T
°C
Wind Press
QNH
hPa
Press
MSL
hPa
Rain since
9am
mm
Dir  Spd
km/h
Gust
km/h
Spd
kts
Gust
kts
26/11:30pm 22.7 18.3 9.1 42 7.3 E 22 28 12 15 1007.6 1006.8 0.0
26/11:00pm 23.3 18.9 9.0 40 7.7 ESE 22 30 12 16 1008.2 1007.4 0.0
26/10:30pm 23.7 19.2 10.0 42 7.6 ESE 24 30 13 16 1008.4 1007.6 0.0
26/10:00pm 24.0 19.9 11.3 45 7.2 ESE 24 30 13 16 1008.4 1007.6 0.0
26/09:30pm 24.7 20.6 11.6 44 7.5 ESE 24 33 13 18 1008.5 1007.7 0.0
26/09:00pm 25.5 20.4 12.0 43 7.8 ESE 30 37 16 20 1008.6 1007.8 0.0
26/08:30pm 26.6 21.2 12.3 41 8.3 ESE 32 39 17 21 1008.8 1008.0 0.0
26/08:00pm 27.6 21.9 11.2 36 9.4 ESE 32 43 17 23 1008.7 1007.9 0.0
26/07:30pm 28.3 22.5 10.9 34 10.0 ESE 32 39 17 21 1009.0 1008.2 0.0
26/07:00pm 29.4 23.7 11.0 32 10.6 ESE 32 41 17 22 1008.9 1008.1 0.0
26/06:30pm 30.6 24.3 11.1 30 11.3 ESE 35 43 19 23 1008.9 1008.1 0.0
26/06:00pm 31.9 25.6 12.2 30 11.7 ESE 37 48 20 26 1008.7 1007.9 0.0
26/05:30pm 33.7 27.5 12.7 28 12.7 ESE 37 48 20 26 1008.5 1007.7 0.0
26/05:07pm 35.4 29.5 12.4 25 13.9 ESE 35 50 19 27 1008.3 1007.5 0.0
26/05:00pm 36.8 29.8 8.6 18 16.2 E 35 43 19 23 1008.2 1007.4 0.0
26/04:30pm 37.1 29.8 8.8 18 16.3 E 37 46 20 25 1008.2 1007.4 0.0
26/04:00pm 37.2 30.1 8.1 17 16.6 E 35 48 19 26 1008.2 1007.4 0.0
26/03:30pm 37.3 30.2 8.2 17 16.6 E 35 52 19 28 1008.4 1007.6 0.0
26/03:00pm 37.3 30.4 7.3 16 17.0 E 33 50 18 27 1008.5 1007.7 0.0
26/02:57pm 37.7 31.1 8.5 17 16.8 E 33 52 18 28 1008.5 1007.7 0.0
26/02:30pm 37.6 30.4 7.5 16 17.1 E 35 50 19 27 1008.8 1008.0 0.0
26/02:00pm 36.7 30.1 8.5 18 16.2 E 33 46 18 25 1009.7 1008.9 0.0
26/01:30pm 36.3 29.4 9.0 19 15.7 ESE 35 46 19 25 1010.3 1009.5 0.0
26/01:00pm 35.7 28.9 9.3 20 15.3 ESE 35 48 19 26 1011.1 1010.4 0.0
26/12:30pm 34.3 28.1 10.2 23 14.0 ESE 33 44 18 24 1012.0 1011.2 0.0
26/12:00pm 32.8 26.8 10.8 26 12.8 ESE 33 43 18 23 1012.6 1011.8 0.0
26/11:30am 31.7 25.8 11.0 28 12.1 ESE 33 44 18 24 1013.3 1012.5 0.0
26/11:00am 31.1 26.0 12.0 31 11.3 ESE 30 41 16 22 1014.1 1013.3 0.0
26/10:30am 29.9 25.5 12.8 35 10.2 ESE 28 39 15 21 1014.8 1014.0 0.0
26/10:00am 28.6 24.4 12.5 37 9.5 ESE 26 37 14 20 1015.5 1014.7 0.0
26/09:30am 26.6 22.6 11.9 40 8.5 ESE 24 35 13 19 1016.0 1015.2 0.0
26/09:00am 26.3 21.7 11.2 38 8.6 ESE 26 33 14 18 1015.8 1015.0 0.0
26/08:30am 25.3 22.3 12.5 45 7.4 SE 20 30 11 16 1016.4 1015.7 0.0
26/08:00am 23.8 20.8 12.4 48 6.6 ESE 20 28 11 15 1016.6 1015.9 0.0
26/07:30am 22.4 18.7 12.6 54 5.6 SE 24 30 13 16 1016.2 1015.4 0.0
26/07:00am 21.8 18.4 12.6 56 5.3 ESE 22 28 12 15 1016.2 1015.4 0.0
26/06:30am 21.2 19.1 12.3 57 5.0 E 15 19 8 10 1016.3 1015.5 0.0
26/06:00am 20.9 16.6 12.1 57 5.0 E 26 30 14 16 1015.4 1014.6 0.0
26/05:30am 20.8 17.7 12.2 58 4.9 ENE 20 28 11 15 1015.6 1014.8 0.0
26/05:00am 20.8 17.2 12.0 57 5.0 E 22 26 12 14 1015.0 1014.2 0.0
26/04:30am 20.9 17.2 11.5 55 5.2 E 22 30 12 16 1014.7 1013.9 0.0
26/04:00am 20.9 17.6 11.5 55 5.2 E 20 26 11 14 1014.2 1013.4 0.0
26/03:30am 21.0 17.8 11.9 56 5.1 ESE 20 26 11 14 1014.1 1013.3 0.0
26/03:00am 21.2 16.4 11.8 55 5.3 E 28 37 15 20 1013.7 1012.9 0.0
26/02:30am 21.3 17.2 11.3 53 5.6 ESE 24 30 13 16 1013.7 1012.9 0.0
26/02:00am 21.3 16.4 11.3 53 5.6 ESE 28 35 15 19 1013.9 1013.1 0.0
26/01:30am 21.4 17.2 11.1 52 5.7 ESE 24 33 13 18 1014.3 1013.5 0.0
26/01:00am 21.5 17.4 11.5 53 5.6 ESE 24 30 13 16 1015.3 1014.5 0.0
26/12:30am 21.6 18.5 11.6 53 5.6 SE 19 26 10 14 1015.9 1015.1 0.0
26/12:00am 21.7 18.7 12.0 54 5.5 SE 19 28 10 15 1016.2 1015.4 0.0
 
Date/Time
WST
Temp
°C
App
Temp
°C
Dew
Point
°C
Rel
Hum
%
Delta-T
°C
Wind Press
QNH
hPa
Press
MSL
hPa
Rain since
9am
mm
Dir  Spd
km/h
Gust
km/h
Spd
kts
Gust
kts
25/11:30pm 21.7 19.4 11.7 53 5.6 SSE 15 20 8 11 1016.6 1015.9 0.0
25/11:00pm 21.8 18.6 11.2 51 5.9 SE 19 24 10 13 1016.6 1015.9 0.0
25/10:30pm 22.1 19.6 11.2 50 6.1 SE 15 19 8 10 1017.2 1016.5 0.0
25/10:00pm 22.4 19.1 10.9 48 6.4 SE 19 30 10 16 1017.1 1016.4 0.0
25/09:30pm 22.7 19.4 10.8 47 6.6 SE 19 26 10 14 1017.3 1016.6 0.0
25/09:00pm 23.1 19.5 10.5 45 7.0 SE 20 33 11 18 1017.2 1016.5 0.0
25/08:30pm 23.6 18.8 10.3 43 7.4 SE 26 33 14 18 1017.1 1016.4 0.0
25/08:00pm 24.0 18.7 9.9 41 7.8 SE 28 37 15 20 1016.6 1015.9 0.0
25/07:30pm 24.2 18.7 10.5 42 7.6 SE 30 37 16 20 1016.3 1015.5 0.0
25/07:00pm 24.5 18.7 10.8 42 7.7 SE 32 37 17 20 1016.1 1015.3 0.0
25/06:30pm 25.0 18.6 10.8 41 8.0 SE 35 46 19 25 1016.0 1015.2 0.0
25/06:00pm 25.8 19.3 10.4 38 8.6 SSE 35 46 19 25 1015.7 1014.9 0.0
25/05:30pm 26.6 20.4 9.9 35 9.3 SSE 33 46 18 25 1015.7 1014.9 0.0
25/05:00pm 28.0 20.8 9.3 31 10.4 SSE 37 52 20 28 1015.4 1014.6 0.0
25/04:30pm 29.1 21.9 10.7 32 10.5 SSE 39 54 21 29 1014.8 1014.0 0.0
25/04:00pm 30.8 23.5 10.2 28 11.8 SSE 39 54 21 29 1014.2 1013.4 0.0
25/03:30pm 30.6 22.6 8.9 26 12.2 SSE 41 59 22 32 1013.9 1013.1 0.0
25/03:00pm 31.5 23.1 9.1 25 12.7 SSE 43 56 23 30 1013.7 1012.9 0.0
25/02:34pm 33.5 27.9 8.9 22 14.0 SSE 28 48 15 26 1013.3 1012.5 0.0
25/02:30pm 34.1 29.8 9.4 22 14.2 SSE 22 37 12 20 1013.5 1012.7 0.0
25/02:00pm 34.7 30.5 9.9 22 14.4 SSE 22 33 12 18 1013.4 1012.6 0.0
25/01:30pm 34.9 30.6 9.3 21 14.7 SSE 22 35 12 19 1013.5 1012.7 0.0
25/01:00pm 35.0 30.9 8.7 20 15.0 ESE 20 30 11 16 1013.6 1012.8 0.0
25/12:30pm 34.4 30.0 7.5 19 15.0 SSE 20 33 11 18 1014.0 1013.2 0.0
25/12:00pm 33.6 29.6 6.8 19 14.7 SSE 17 26 9 14 1014.5 1013.7 0.0
25/11:30am 33.0 28.9 6.3 19 14.5 SSE 17 28 9 15 1014.9 1014.1 0.0
25/11:00am 32.7 28.0 5.3 18 14.6 SE 19 28 10 15 1015.2 1014.4 0.0
25/10:30am 32.8 29.3 5.4 18 14.7 ESE 13 26 7 14 1015.4 1014.6 0.0
25/10:00am 31.6 28.7 4.4 18 14.2 E 9 15 5 8 1015.7 1014.9 0.0
25/09:30am 30.3 27.4 4.9 20 13.3 E 9 13 5 7 1015.6 1014.8 0.0
25/09:00am 29.7 25.7 5.1 21 12.9 E 15 19 8 10 1015.7 1014.9 0.0
25/08:30am 27.3 22.9 5.0 24 11.5 ENE 17 20 9 11 1015.7 1014.9 0.0
25/08:00am 24.8 21.1 4.5 27 10.2 E 13 15 7 8 1015.7 1014.9 0.0
25/07:30am 23.2 19.5 4.7 30 9.2 ENE 13 17 7 9 1015.7 1014.9 0.0
25/07:00am 22.2 19.0 5.2 33 8.5 ENE 11 13 6 7 1015.6 1014.8 0.0
25/06:30am 21.3 19.1 6.0 37 7.7 NE 7 11 4 6 1015.4 1014.6 0.0
25/06:00am 19.6 17.4 6.0 41 6.8 NE 7 9 4 5 1015.2 1014.4 0.0
25/05:30am 18.3 15.6 5.8 44 6.2 NE 9 9 5 5 1014.8 1014.0 0.0
25/05:00am 18.5 16.4 6.0 44 6.2 NE 6 7 3 4 1014.3 1013.5 0.0
25/04:30am 18.8 16.6 6.0 43 6.4 NE 7 9 4 5 1013.8 1013.0 0.0

Other formats

Comma delimited format used in spreadsheet applications
http://www.bom.gov.au/fwo/IDW60801/IDW60801.95646.axf

JavaScript Object Notation format (JSON) in row-major order
http://www.bom.gov.au/fwo/IDW60801/IDW60801.95646.json

Data quality

Most of these data are generated automatically and are frequently updated. Quality checks on data are not normally performed. It is possible for incorrect values to appear. Refer to information at About Latest Weather Observations and please check the disclaimer before using these data.